Time;durP1;ratioP1;P1;durP2;ratioP2;P2;SDS_P1;SDS_P2;PMS_P1;PMS_P2;Temp;Humidity;BMP_temperature;BMP_pressure;BME280_temperature;BME280_humidity;BME280_pressure;Samples;Min_cycle;Max_cycle;Signal;HPM_P1;HPM_P2
2024/01/07 00:00:34;;;;;;;14.10;8.80;;;;;;;11.22;92.93;99728.22;107842;1289;21998;-64
2024/01/07 00:03:00;;;;;;;12.90;8.30;;;;;;;11.21;92.97;99733.88;107860;1280;21989;-65
2024/01/07 00:05:26;;;;;;;13.10;8.40;;;;;;;11.21;93.08;99732.47;107853;1289;21993;-61
2024/01/07 00:07:51;;;;;;;14.30;8.90;;;;;;;11.21;93.01;99729.66;107896;1279;21990;-65
2024/01/07 00:10:17;;;;;;;14.80;8.70;;;;;;;11.20;92.91;99728.46;107831;1289;21996;-59
2024/01/07 00:12:43;;;;;;;15.70;9.10;;;;;;;11.14;92.62;99727.17;107844;1289;21991;-66
2024/01/07 00:15:09;;;;;;;12.20;8.00;;;;;;;11.11;92.75;99729.38;107984;1289;22452;-60
2024/01/07 00:17:35;;;;;;;12.30;8.00;;;;;;;11.09;92.87;99730.99;107860;1282;21990;-65
2024/01/07 00:20:01;;;;;;;10.70;7.00;;;;;;;11.08;92.87;99731.03;107795;1289;21985;-65
2024/01/07 00:22:26;;;;;;;10.40;6.60;;;;;;;11.04;93.05;99731.13;107814;1289;22006;-62
2024/01/07 00:24:52;;;;;;;11.90;6.50;;;;;;;10.99;93.01;99732.48;107799;1289;22006;-64
2024/01/07 00:27:17;;;;;;;11.00;7.20;;;;;;;10.96;92.99;99735.36;106407;1289;1002546;-60
2024/01/07 00:29:43;;;;;;;10.80;6.80;;;;;;;10.95;93.25;99733.61;107835;1289;22050;-65
2024/01/07 00:32:08;;;;;;;12.40;7.30;;;;;;;10.97;93.55;99735.00;107773;1289;21998;-61
2024/01/07 00:34:34;;;;;;;12.00;7.20;;;;;;;10.99;93.73;99736.87;107909;1283;21995;-60
2024/01/07 00:36:59;;;;;;;11.40;7.20;;;;;;;11.01;93.91;99737.88;107866;1283;21993;-61
2024/01/07 00:39:25;;;;;;;10.70;6.80;;;;;;;11.04;93.87;99737.11;107808;1289;21979;-60
2024/01/07 00:41:50;;;;;;;11.30;7.10;;;;;;;11.04;94.01;99732.70;107937;1289;21998;-61
2024/01/07 00:44:16;;;;;;;11.40;6.40;;;;;;;11.06;94.26;99727.38;107876;1282;22030;-61
2024/01/07 00:46:42;;;;;;;11.10;6.70;;;;;;;11.11;94.40;99723.77;107854;1283;22001;-64
2024/01/07 00:49:07;;;;;;;10.70;6.40;;;;;;;11.15;94.22;99728.23;107879;1289;21989;-65
2024/01/07 00:51:33;;;;;;;11.20;7.10;;;;;;;11.17;94.20;99731.86;107951;1283;21997;-65
2024/01/07 00:53:58;;;;;;;9.40;6.10;;;;;;;11.19;94.06;99734.80;107820;1289;21990;-66
2024/01/07 00:56:27;;;;;;;10.90;7.00;;;;;;;11.20;94.06;99736.52;107874;1289;21993;-65
2024/01/07 00:58:53;;;;;;;9.90;6.30;;;;;;;11.18;93.74;99732.20;107882;1289;21996;-61
2024/01/07 01:01:19;;;;;;;12.10;6.50;;;;;;;11.13;93.58;99736.17;107833;1289;22064;-65
2024/01/07 01:03:44;;;;;;;10.40;6.30;;;;;;;11.08;93.33;99735.58;107984;1289;21995;-65
2024/01/07 01:06:10;;;;;;;10.80;6.90;;;;;;;11.02;93.40;99735.74;107885;1289;21994;-66
2024/01/07 01:08:35;;;;;;;11.50;6.90;;;;;;;10.96;93.35;99735.02;107807;1289;21995;-65
2024/01/07 01:11:01;;;;;;;12.20;7.10;;;;;;;10.91;93.42;99738.98;107920;1283;22033;-63
2024/01/07 01:13:26;;;;;;;11.30;7.10;;;;;;;10.88;93.73;99745.72;107835;1289;22008;-65
2024/01/07 01:15:52;;;;;;;10.30;6.40;;;;;;;10.87;94.10;99752.07;107053;1289;1003091;-61
2024/01/07 01:18:18;;;;;;;8.70;5.60;;;;;;;10.86;94.39;99749.29;107797;1289;22021;-66
2024/01/07 01:20:43;;;;;;;11.00;6.00;;;;;;;10.87;94.70;99752.08;107787;1289;21995;-65
2024/01/07 01:23:09;;;;;;;10.60;5.70;;;;;;;10.89;94.71;99754.98;107743;1289;132999;-61
2024/01/07 01:25:35;;;;;;;10.20;6.30;;;;;;;10.94;94.69;99750.16;107841;1289;21997;-65
2024/01/07 01:28:01;;;;;;;10.20;6.10;;;;;;;10.95;94.94;99736.78;107895;1280;22004;-61
2024/01/07 01:30:30;;;;;;;10.20;6.20;;;;;;;10.95;94.99;99725.71;107815;1289;21998;-65
2024/01/07 01:32:56;;;;;;;10.90;6.60;;;;;;;10.95;94.85;99720.64;107941;1289;22002;-65
2024/01/07 01:35:21;;;;;;;9.10;5.40;;;;;;;10.94;95.03;99715.58;107826;1289;22001;-60
2024/01/07 01:37:47;;;;;;;11.80;6.50;;;;;;;10.91;95.21;99710.21;107816;1282;21996;-61
2024/01/07 01:40:15;;;;;;;9.00;5.70;;;;;;;10.87;95.46;99712.04;107803;1289;21990;-65
2024/01/07 01:42:43;;;;;;;9.20;5.90;;;;;;;10.86;95.50;99719.09;107834;1280;21991;-65
2024/01/07 01:45:09;;;;;;;9.60;6.00;;;;;;;10.87;95.71;99718.54;107846;1283;21995;-66
2024/01/07 01:47:34;;;;;;;9.90;6.00;;;;;;;10.89;95.88;99714.98;107930;1289;21993;-63
2024/01/07 01:50:00;;;;;;;10.10;6.10;;;;;;;10.93;96.26;99709.11;107832;1282;21990;-61
2024/01/07 01:52:26;;;;;;;8.90;6.00;;;;;;;10.97;96.34;99706.02;107728;1289;22003;-61
2024/01/07 01:54:51;;;;;;;10.10;5.60;;;;;;;11.01;96.46;99701.90;107845;1289;22011;-61
2024/01/07 01:57:20;;;;;;;9.50;5.40;;;;;;;11.04;96.69;99705.85;107958;1280;22008;-64
2024/01/07 01:59:46;;;;;;;10.90;6.20;;;;;;;11.08;96.59;99719.61;107851;1276;22007;-65
2024/01/07 02:02:12;;;;;;;9.40;5.30;;;;;;;11.14;96.69;99716.31;107817;1285;22000;-60
2024/01/07 02:04:37;;;;;;;10.10;5.90;;;;;;;11.21;97.05;99702.80;107849;1289;21998;-65
2024/01/07 02:07:03;;;;;;;9.10;5.70;;;;;;;11.27;96.80;99695.26;107874;1280;21990;-61
2024/01/07 02:09:28;;;;;;;11.40;6.50;;;;;;;11.30;96.44;99700.60;107818;1279;21992;-61
2024/01/07 02:12:04;;;;;;;10.90;6.70;;;;;;;11.34;96.20;99707.55;107855;1285;23622;-61
2024/01/07 02:14:29;;;;;;;10.40;6.50;;;;;;;11.37;96.28;99716.07;107835;1283;21990;-66
2024/01/07 02:16:55;;;;;;;10.80;6.40;;;;;;;11.41;96.29;99715.43;107812;1280;22012;-66
2024/01/07 02:19:20;;;;;;;15.70;6.90;;;;;;;11.47;96.53;99705.80;107912;1289;23749;-61
2024/01/07 02:21:46;;;;;;;12.80;7.10;;;;;;;11.52;96.50;99702.33;107948;1286;21995;-65
2024/01/07 02:24:15;;;;;;;16.30;8.20;;;;;;;11.55;96.26;99703.84;107811;1280;21993;-61
2024/01/07 02:26:41;;;;;;;16.40;8.50;;;;;;;11.57;96.17;99706.41;107857;1289;23055;-61
2024/01/07 02:29:06;;;;;;;12.30;7.90;;;;;;;11.59;96.23;99703.38;107873;1289;22011;-66
2024/01/07 02:31:32;;;;;;;14.20;8.30;;;;;;;11.60;96.19;99695.41;108026;1278;22001;-62
2024/01/07 02:33:57;;;;;;;16.20;8.00;;;;;;;11.62;96.37;99685.90;107888;1280;22007;-61
2024/01/07 02:36:23;;;;;;;15.50;7.80;;;;;;;11.64;96.35;99681.98;107886;1279;21994;-66
2024/01/07 02:38:48;;;;;;;17.00;8.30;;;;;;;11.66;96.29;99675.08;107897;1289;21991;-66
2024/01/07 02:41:14;;;;;;;15.80;8.90;;;;;;;11.67;96.25;99669.95;107800;1282;21989;-66
2024/01/07 02:43:39;;;;;;;18.80;9.20;;;;;;;11.67;96.15;99671.55;107256;1282;1002300;-61
2024/01/07 02:46:07;;;;;;;15.00;9.00;;;;;;;11.68;96.21;99674.66;107947;1283;21992;-61
2024/01/07 02:48:33;;;;;;;16.40;9.60;;;;;;;11.70;96.37;99680.20;107872;1276;22001;-65
2024/01/07 02:50:59;;;;;;;16.00;9.20;;;;;;;11.75;96.51;99688.88;107914;1283;21966;-61
2024/01/07 02:53:24;;;;;;;18.60;8.60;;;;;;;11.79;96.78;99691.75;107916;1283;22036;-61
2024/01/07 02:55:50;;;;;;;18.00;9.50;;;;;;;11.84;96.76;99692.68;107831;1283;22006;-61
2024/01/07 02:58:15;;;;;;;18.70;9.00;;;;;;;11.86;97.00;99693.50;107899;1289;22013;-66
2024/01/07 03:00:41;;;;;;;17.90;8.80;;;;;;;11.91;96.98;99693.69;107935;1282;21984;-61
2024/01/07 03:03:06;;;;;;;15.60;8.50;;;;;;;11.95;96.94;99690.94;107840;1289;21991;-61
2024/01/07 03:05:32;;;;;;;20.90;9.00;;;;;;;11.99;97.06;99689.45;107808;1289;22008;-61
2024/01/07 03:08:00;;;;;;;17.50;9.00;;;;;;;12.01;97.10;99681.30;107901;1280;22030;-62
2024/01/07 03:10:25;;;;;;;17.40;8.30;;;;;;;12.03;96.79;99677.91;107902;1289;21992;-66
2024/01/07 03:12:51;;;;;;;14.40;7.90;;;;;;;12.06;96.95;99682.92;107810;1283;21997;-62
2024/01/07 03:15:17;;;;;;;17.40;8.40;;;;;;;12.09;96.87;99691.46;107870;1289;21990;-66
2024/01/07 03:17:43;;;;;;;18.10;9.40;;;;;;;12.13;97.10;99693.97;107840;1283;21996;-61
2024/01/07 03:20:09;;;;;;;17.60;9.00;;;;;;;12.16;96.98;99693.52;107932;1289;22043;-67
2024/01/07 03:22:35;;;;;;;16.40;9.20;;;;;;;12.20;97.11;99687.09;107900;1289;22004;-61
2024/01/07 03:25:01;;;;;;;17.00;8.80;;;;;;;12.22;96.98;99676.81;107911;1280;22173;-66
2024/01/07 03:27:26;;;;;;;18.60;8.70;;;;;;;12.24;96.76;99671.84;107952;1289;22053;-62
2024/01/07 03:29:52;;;;;;;17.00;8.80;;;;;;;12.25;96.70;99673.91;107925;1287;21990;-64
2024/01/07 03:32:21;;;;;;;19.10;9.30;;;;;;;12.25;96.95;99674.09;107843;1289;22031;-61
2024/01/07 03:34:46;;;;;;;17.50;8.80;;;;;;;12.26;96.81;99679.68;107845;1289;21998;-66
2024/01/07 03:37:12;;;;;;;15.40;8.60;;;;;;;12.28;96.79;99685.96;107068;1289;1002383;-61
2024/01/07 03:39:37;;;;;;;19.10;9.10;;;;;;;12.29;96.81;99686.29;107878;1289;21994;-62
2024/01/07 03:42:03;;;;;;;17.70;8.90;;;;;;;12.30;96.80;99687.65;107941;1289;22051;-61
2024/01/07 03:44:28;;;;;;;16.10;8.20;;;;;;;12.32;96.86;99681.98;107807;1280;22011;-65
2024/01/07 03:46:54;;;;;;;22.60;9.00;;;;;;;12.34;96.95;99687.20;107832;1282;22013;-60
2024/01/07 03:49:20;;;;;;;19.00;9.50;;;;;;;12.35;97.00;99698.05;107954;1289;21995;-60
2024/01/07 03:51:45;;;;;;;19.10;9.30;;;;;;;12.37;96.86;99706.45;107857;1283;21991;-61
2024/01/07 03:54:11;;;;;;;18.30;9.90;;;;;;;12.39;97.08;99714.13;107870;1289;21998;-61
2024/01/07 03:56:36;;;;;;;21.90;10.30;;;;;;;12.43;97.31;99721.91;107912;1289;21997;-65
2024/01/07 03:59:02;;;;;;;21.70;10.00;;;;;;;12.47;97.55;99721.10;107784;1289;21994;-65
2024/01/07 04:01:27;;;;;;;22.30;10.50;;;;;;;12.51;97.39;99714.64;107859;1283;21992;-66
2024/01/07 04:03:53;;;;;;;20.10;9.90;;;;;;;12.52;97.23;99701.59;107821;1288;22205;-67
2024/01/07 04:06:19;;;;;;;19.60;9.60;;;;;;;12.53;97.26;99698.77;107102;1279;1002245;-67
2024/01/07 04:08:44;;;;;;;23.40;11.10;;;;;;;12.53;97.16;99700.86;107974;1282;21993;-67
2024/01/07 04:11:10;;;;;;;18.90;10.50;;;;;;;12.55;96.98;99697.11;107820;1289;21985;-60
2024/01/07 04:13:35;;;;;;;25.60;11.20;;;;;;;12.56;96.87;99693.91;107767;1289;21993;-67
2024/01/07 04:16:01;;;;;;;19.80;10.40;;;;;;;12.56;96.97;99690.39;107749;1286;22459;-60
2024/01/07 04:18:26;;;;;;;22.10;10.50;;;;;;;12.56;96.94;99694.98;107861;1289;21993;-67
2024/01/07 04:20:52;;;;;;;21.20;11.20;;;;;;;12.57;97.03;99698.79;107942;1289;21996;-60
2024/01/07 04:23:17;;;;;;;23.80;11.50;;;;;;;12.58;96.99;99694.20;107867;1279;21995;-68
2024/01/07 04:25:44;;;;;;;22.70;11.90;;;;;;;12.56;97.16;99692.67;107902;1289;21992;-62
2024/01/07 04:28:09;;;;;;;22.10;11.30;;;;;;;12.57;97.33;99691.77;107868;1289;21993;-66
2024/01/07 04:30:35;;;;;;;23.90;11.70;;;;;;;12.60;97.25;99692.00;107800;1283;21996;-60
2024/01/07 04:33:01;;;;;;;25.50;12.90;;;;;;;12.61;97.40;99688.97;107764;1289;21995;-67
2024/01/07 04:35:26;;;;;;;22.50;12.40;;;;;;;12.63;97.39;99686.27;107806;1289;21991;-61
2024/01/07 04:37:52;;;;;;;28.20;13.90;;;;;;;12.64;97.43;99687.48;107944;1289;22004;-60
2024/01/07 04:40:17;;;;;;;26.80;12.70;;;;;;;12.63;97.43;99685.55;107969;1289;22165;-67
2024/01/07 04:42:43;;;;;;;24.10;13.20;;;;;;;12.64;97.52;99685.52;107841;1283;22003;-60
2024/01/07 04:45:08;;;;;;;26.90;12.90;;;;;;;12.66;97.61;99680.04;107859;1289;21991;-61
2024/01/07 04:47:34;;;;;;;24.90;13.20;;;;;;;12.66;97.68;99678.80;107783;1289;22001;-66
2024/01/07 04:50:00;;;;;;;24.70;13.10;;;;;;;12.68;97.80;99685.61;107784;1280;21997;-66
2024/01/07 04:52:28;;;;;;;25.80;13.30;;;;;;;12.68;97.68;99680.33;107799;1289;22034;-63
2024/01/07 04:54:54;;;;;;;26.40;14.10;;;;;;;12.68;97.81;99677.50;107861;1289;22470;-60
2024/01/07 04:57:19;;;;;;;24.70;13.30;;;;;;;12.68;97.83;99675.21;107801;1289;21993;-66
2024/01/07 04:59:49;;;;;;;22.50;12.80;;;;;;;12.68;97.90;99673.81;107794;1285;22009;-66
2024/01/07 05:02:14;;;;;;;24.00;12.80;;;;;;;12.69;97.78;99672.55;107822;1289;21986;-61
2024/01/07 05:04:41;;;;;;;25.30;14.10;;;;;;;12.69;97.88;99666.21;107792;1289;21997;-61
2024/01/07 05:07:06;;;;;;;23.90;13.30;;;;;;;12.69;97.94;99667.61;107820;1280;21990;-62
2024/01/07 05:09:32;;;;;;;25.30;13.80;;;;;;;12.70;97.91;99671.83;107855;1289;22000;-61
2024/01/07 05:11:58;;;;;;;26.40;13.60;;;;;;;12.71;98.00;99677.94;107793;1289;22001;-61
2024/01/07 05:14:23;;;;;;;29.60;14.70;;;;;;;12.73;98.19;99684.39;107048;1288;1003132;-60
2024/01/07 05:16:49;;;;;;;24.80;13.90;;;;;;;12.74;98.03;99682.08;107814;1289;21996;-66
2024/01/07 05:19:17;;;;;;;25.30;13.70;;;;;;;12.76;98.29;99687.46;107800;1283;21994;-66
2024/01/07 05:21:42;;;;;;;28.90;15.00;;;;;;;12.78;98.21;99688.83;107913;1283;21998;-62
2024/01/07 05:24:08;;;;;;;28.90;15.60;;;;;;;12.81;98.44;99674.27;107824;1289;21994;-61
2024/01/07 05:26:41;;;;;;;26.70;13.80;;;;;;;12.84;98.64;99663.80;107881;1289;21990;-61
2024/01/07 05:29:06;;;;;;;26.50;13.80;;;;;;;12.86;98.33;99668.47;107950;1289;22004;-61
2024/01/07 05:31:34;;;;;;;25.20;14.50;;;;;;;12.87;98.29;99670.05;107825;1289;21999;-66
2024/01/07 05:34:00;;;;;;;24.80;13.10;;;;;;;12.87;98.35;99666.83;107829;1280;22016;-65
2024/01/07 05:36:25;;;;;;;28.00;14.10;;;;;;;12.88;98.47;99675.97;107823;1289;22052;-67
2024/01/07 05:38:51;;;;;;;30.30;14.30;;;;;;;12.89;98.53;99689.33;107824;1289;21999;-68
2024/01/07 05:41:16;;;;;;;30.00;13.90;;;;;;;12.89;98.40;99699.36;107830;1284;21994;-65
2024/01/07 05:43:42;;;;;;;34.40;13.90;;;;;;;12.90;98.38;99699.88;107839;1289;21993;-66
2024/01/07 05:46:07;;;;;;;33.00;14.60;;;;;;;12.90;98.26;99702.50;107818;1289;21995;-67
2024/01/07 05:48:49;;;;;;;36.00;14.30;;;;;;;12.91;98.33;99698.60;107858;1289;22002;-61
2024/01/07 05:51:15;;;;;;;41.60;16.00;;;;;;;12.91;98.43;99692.05;107818;1287;21994;-67
2024/01/07 05:53:41;;;;;;;37.60;14.10;;;;;;;12.91;98.19;99689.79;107820;1283;21968;-66
2024/01/07 05:56:07;;;;;;;40.80;15.20;;;;;;;12.91;98.34;99682.92;107940;1289;21998;-67
2024/01/07 05:58:33;;;;;;;32.40;14.90;;;;;;;12.91;98.40;99691.54;107983;1289;21991;-67
2024/01/07 06:00:58;;;;;;;31.00;13.90;;;;;;;12.93;98.57;99690.77;107833;1289;24021;-59
2024/01/07 06:03:27;;;;;;;31.00;14.20;;;;;;;12.93;98.56;99689.17;107837;1289;21990;-60
2024/01/07 06:05:52;;;;;;;31.60;15.40;;;;;;;12.94;98.49;99688.83;107832;1289;21987;-59
2024/01/07 06:08:18;;;;;;;33.10;15.80;;;;;;;12.94;98.65;99685.30;107838;1289;21995;-68
2024/01/07 06:10:44;;;;;;;37.90;15.70;;;;;;;12.94;98.91;99680.52;107955;1289;21999;-65
2024/01/07 06:13:09;;;;;;;30.90;14.30;;;;;;;12.95;98.90;99666.43;107788;1289;22016;-62
2024/01/07 06:15:35;;;;;;;33.30;15.40;;;;;;;12.96;98.90;99657.77;107766;1289;22052;-68
2024/01/07 06:18:01;;;;;;;32.10;14.20;;;;;;;12.96;99.07;99656.19;107846;1289;21991;-62
2024/01/07 06:20:27;;;;;;;33.10;15.90;;;;;;;12.96;99.15;99649.31;107831;1284;21966;-66
2024/01/07 06:22:52;;;;;;;31.10;14.30;;;;;;;12.96;99.04;99653.88;107812;1289;21990;-60
2024/01/07 06:25:18;;;;;;;29.90;13.90;;;;;;;12.99;98.84;99653.80;107769;1280;21996;-61
2024/01/07 06:27:43;;;;;;;27.40;13.60;;;;;;;13.02;98.90;99650.52;107822;1283;21999;-62
2024/01/07 06:30:10;;;;;;;28.00;14.10;;;;;;;13.05;98.79;99653.02;107877;1279;21996;-61
2024/01/07 06:32:35;;;;;;;31.80;14.30;;;;;;;13.09;98.78;99658.39;107893;1289;21995;-62
2024/01/07 06:35:03;;;;;;;31.70;15.60;;;;;;;13.09;99.18;99660.30;107825;1289;21984;-61
2024/01/07 06:37:29;;;;;;;29.20;14.10;;;;;;;13.06;98.77;99653.35;107865;1289;21965;-61
2024/01/07 06:39:56;;;;;;;27.80;14.20;;;;;;;13.03;98.63;99651.90;107813;1287;21994;-65
2024/01/07 06:42:22;;;;;;;23.60;13.10;;;;;;;13.02;98.62;99655.96;107876;1289;21994;-61
2024/01/07 06:44:47;;;;;;;24.90;13.50;;;;;;;13.01;98.51;99651.59;107867;1279;21995;-66
2024/01/07 06:47:13;;;;;;;22.70;11.70;;;;;;;13.01;98.60;99652.67;107849;1289;21992;-65
2024/01/07 06:49:39;;;;;;;24.00;12.50;;;;;;;13.00;98.54;99655.16;107816;1289;22000;-61
2024/01/07 06:52:05;;;;;;;22.50;12.60;;;;;;;13.00;98.54;99659.77;107846;1280;22008;-61
2024/01/07 06:54:31;;;;;;;21.20;12.00;;;;;;;12.99;98.48;99661.19;107873;1289;22032;-66
2024/01/07 06:56:56;;;;;;;22.70;12.40;;;;;;;12.99;98.52;99657.66;107817;1289;21995;-65
2024/01/07 06:59:22;;;;;;;20.40;11.00;;;;;;;12.99;98.55;99655.73;107769;1280;21998;-65
2024/01/07 07:01:47;;;;;;;16.30;9.90;;;;;;;12.98;98.60;99654.20;107775;1289;21989;-62
2024/01/07 07:04:13;;;;;;;21.30;11.20;;;;;;;12.95;98.85;99650.73;107841;1289;21982;-66
2024/01/07 07:06:38;;;;;;;16.80;9.80;;;;;;;12.94;98.68;99651.15;106366;1277;1002569;-64
2024/01/07 07:09:07;;;;;;;15.30;9.90;;;;;;;12.93;98.69;99646.59;107775;1289;21997;-60
2024/01/07 07:11:32;;;;;;;16.50;9.40;;;;;;;12.93;98.75;99643.95;107870;1289;22015;-64
2024/01/07 07:13:58;;;;;;;16.80;9.00;;;;;;;12.93;98.80;99637.45;107874;1281;22002;-65
2024/01/07 07:16:25;;;;;;;15.30;9.80;;;;;;;12.93;98.83;99631.26;107777;1286;21997;-61
2024/01/07 07:18:50;;;;;;;14.80;8.70;;;;;;;12.93;98.76;99629.66;107836;1289;21995;-61
2024/01/07 07:21:16;;;;;;;14.90;8.80;;;;;;;12.91;98.78;99623.39;107805;1289;21980;-61
2024/01/07 07:23:41;;;;;;;15.20;9.00;;;;;;;12.91;98.88;99623.04;107836;1284;22002;-64
2024/01/07 07:26:08;;;;;;;14.80;8.70;;;;;;;12.92;98.89;99617.73;107836;1289;21952;-65
2024/01/07 07:28:34;;;;;;;15.00;8.20;;;;;;;12.91;99.03;99626.04;107935;1289;21992;-61
2024/01/07 07:30:59;;;;;;;14.10;8.40;;;;;;;12.92;99.12;99642.57;107800;1289;21997;-61
2024/01/07 07:33:25;;;;;;;13.70;8.40;;;;;;;12.92;99.12;99649.25;107828;1289;21994;-65
2024/01/07 07:35:50;;;;;;;13.30;7.70;;;;;;;12.94;99.27;99643.04;107892;1289;22000;-61
2024/01/07 07:38:16;;;;;;;14.50;7.80;;;;;;;12.95;99.21;99635.09;107821;1289;22015;-63
2024/01/07 07:40:41;;;;;;;10.80;7.80;;;;;;;12.96;99.18;99641.03;107823;1283;21987;-65
2024/01/07 07:43:08;;;;;;;10.90;7.10;;;;;;;12.96;99.22;99643.52;107842;1289;22003;-64
2024/01/07 07:45:34;;;;;;;11.90;6.80;;;;;;;12.95;99.30;99636.50;106344;1283;1002656;-62
2024/01/07 07:47:59;;;;;;;10.20;6.50;;;;;;;12.95;99.42;99642.81;107819;1280;22016;-66
2024/01/07 07:50:25;;;;;;;14.20;7.30;;;;;;;12.96;99.51;99648.09;107812;1289;22003;-61
2024/01/07 07:52:51;;;;;;;12.60;6.50;;;;;;;12.97;99.44;99644.36;107833;1283;22002;-63
2024/01/07 07:55:16;;;;;;;14.10;7.70;;;;;;;12.94;99.66;99641.08;107849;1289;22027;-66
2024/01/07 07:57:42;;;;;;;12.00;6.40;;;;;;;12.94;99.75;99641.98;107787;1289;22005;-61
2024/01/07 08:00:12;;;;;;;13.50;7.20;;;;;;;12.94;99.72;99633.88;107801;1289;22000;-61
2024/01/07 08:02:38;;;;;;;;;;;;;;;12.94;99.59;99631.05;107803;1289;21977;-66
2024/01/07 08:05:04;;;;;;;11.00;6.10;;;;;;;12.94;99.72;99634.41;107803;1289;21990;-65
2024/01/07 08:07:30;;;;;;;10.70;6.60;;;;;;;12.92;99.63;99630.95;107872;1289;22011;-64
2024/01/07 08:09:57;;;;;;;10.80;6.20;;;;;;;12.92;99.73;99620.74;107900;1289;21994;-65
2024/01/07 08:12:23;;;;;;;8.40;5.10;;;;;;;12.91;99.88;99621.30;108025;1289;21962;-61
2024/01/07 08:14:49;;;;;;;8.50;5.00;;;;;;;12.91;99.78;99626.42;107830;1289;21991;-65
2024/01/07 08:17:14;;;;;;;9.30;4.90;;;;;;;12.89;99.92;99624.70;107876;1289;21998;-62
2024/01/07 08:19:40;;;;;;;8.90;4.80;;;;;;;12.89;99.80;99623.66;107824;1289;21988;-61
2024/01/07 08:22:06;;;;;;;9.50;4.50;;;;;;;12.88;99.81;99616.13;107930;1286;21997;-61
2024/01/07 08:24:31;;;;;;;7.50;4.60;;;;;;;12.88;99.81;99610.48;107924;1289;21982;-65
2024/01/07 08:26:57;;;;;;;8.20;4.30;;;;;;;12.88;99.78;99606.62;107855;1289;21998;-65
2024/01/07 08:29:23;;;;;;;10.50;5.20;;;;;;;12.86;99.81;99608.45;107830;1284;21992;-62
2024/01/07 08:31:48;;;;;;;6.90;4.20;;;;;;;12.84;99.69;99610.27;107881;1289;21992;-66
2024/01/07 08:34:15;;;;;;;9.10;5.00;;;;;;;12.82;99.54;99608.91;107961;1280;22011;-62
2024/01/07 08:36:41;;;;;;;8.00;5.00;;;;;;;12.81;99.37;99612.49;107832;1289;22010;-66
2024/01/07 08:39:07;;;;;;;8.30;4.80;;;;;;;12.79;99.27;99618.88;107834;1289;22757;-66
2024/01/07 08:41:33;;;;;;;8.50;4.90;;;;;;;12.78;99.26;99621.02;107874;1289;22069;-63
2024/01/07 08:43:59;;;;;;;7.90;5.30;;;;;;;12.78;99.28;99619.28;107900;1289;21991;-62
2024/01/07 08:46:24;;;;;;;9.50;5.10;;;;;;;12.76;99.16;99615.64;107849;1289;22029;-62
2024/01/07 08:48:50;;;;;;;8.10;5.20;;;;;;;12.75;99.24;99616.90;107077;1289;1002636;-62
2024/01/07 08:51:15;;;;;;;8.00;5.20;;;;;;;12.74;99.00;99618.53;107856;1289;21993;-66
2024/01/07 08:53:41;;;;;;;9.20;5.50;;;;;;;12.72;99.04;99619.65;107795;1289;22045;-62
2024/01/07 08:56:06;;;;;;;8.80;5.90;;;;;;;12.71;98.92;99616.16;107887;1289;22027;-62
2024/01/07 08:58:32;;;;;;;9.20;5.30;;;;;;;12.68;98.96;99610.98;107849;1289;22046;-63
2024/01/07 09:01:00;;;;;;;8.30;4.90;;;;;;;12.66;98.95;99608.41;107828;1289;21994;-63
2024/01/07 09:03:26;;;;;;;9.10;5.60;;;;;;;12.64;99.04;99609.52;107982;1280;21994;-66
2024/01/07 09:05:52;;;;;;;9.10;5.30;;;;;;;12.61;98.96;99606.42;107939;1289;22007;-66
2024/01/07 09:08:17;;;;;;;8.40;5.50;;;;;;;12.62;98.86;99606.05;107891;1289;21989;-62
2024/01/07 09:10:43;;;;;;;8.30;5.10;;;;;;;12.63;98.82;99604.27;107941;1289;21990;-62
2024/01/07 09:13:11;;;;;;;8.30;5.20;;;;;;;12.63;98.82;99599.33;107961;1289;21996;-67
2024/01/07 09:15:37;;;;;;;8.30;5.10;;;;;;;12.63;98.70;99597.21;107849;1283;22023;-65
2024/01/07 09:18:05;;;;;;;7.80;5.20;;;;;;;12.63;98.70;99599.68;107839;1289;21997;-65
2024/01/07 09:20:31;;;;;;;9.60;5.40;;;;;;;12.63;98.58;99606.73;107855;1289;21961;-62
2024/01/07 09:22:57;;;;;;;8.80;5.60;;;;;;;12.63;98.63;99609.36;107876;1286;21998;-62
2024/01/07 09:25:22;;;;;;;7.30;5.10;;;;;;;12.64;98.65;99604.23;107865;1289;21996;-63
2024/01/07 09:27:48;;;;;;;8.10;5.30;;;;;;;12.60;98.88;99598.90;107850;1281;21994;-66
2024/01/07 09:30:17;;;;;;;9.50;5.40;;;;;;;12.59;99.09;99598.59;106402;1289;1003221;-62
2024/01/07 09:32:43;;;;;;;8.20;5.40;;;;;;;12.59;99.08;99595.08;107856;1281;21997;-66
2024/01/07 09:35:09;;;;;;;8.90;5.30;;;;;;;12.59;98.95;99595.79;107917;1289;22011;-62
2024/01/07 09:37:35;;;;;;;9.60;5.30;;;;;;;12.59;99.08;99594.19;107974;1289;21998;-61
2024/01/07 09:40:01;;;;;;;8.90;5.80;;;;;;;12.61;99.02;99591.48;107917;1289;22023;-61
2024/01/07 09:42:27;;;;;;;10.60;5.80;;;;;;;12.64;98.94;99589.81;107819;1289;21987;-65
2024/01/07 09:44:52;;;;;;;9.20;5.90;;;;;;;12.67;98.90;99586.04;107844;1289;22049;-61
2024/01/07 09:47:18;;;;;;;9.00;5.20;;;;;;;12.67;98.84;99586.20;107774;1289;21990;-64
2024/01/07 09:49:44;;;;;;;7.00;5.20;;;;;;;12.68;98.91;99583.19;107142;1289;1002955;-61
2024/01/07 09:52:10;;;;;;;9.10;5.90;;;;;;;12.69;98.85;99582.27;107867;1289;22014;-61
2024/01/07 09:54:38;;;;;;;9.50;5.90;;;;;;;12.69;98.86;99582.08;107885;1289;22002;-61
2024/01/07 09:57:06;;;;;;;12.00;7.40;;;;;;;12.70;98.88;99577.81;107899;1289;21994;-61
2024/01/07 09:59:32;;;;;;;12.10;7.60;;;;;;;12.71;98.70;99566.88;107828;1289;22007;-61
2024/01/07 10:01:57;;;;;;;12.30;7.70;;;;;;;12.72;98.82;99557.35;107898;1278;22013;-64
2024/01/07 10:04:24;;;;;;;12.30;7.50;;;;;;;12.72;98.88;99548.35;107073;1289;1002293;-66
2024/01/07 10:06:49;;;;;;;14.00;8.10;;;;;;;12.72;98.82;99545.35;107864;1289;21993;-65
2024/01/07 10:09:17;;;;;;;13.60;8.20;;;;;;;12.72;98.97;99546.77;107884;1289;22000;-67
2024/01/07 10:11:43;;;;;;;16.90;9.30;;;;;;;12.73;99.11;99541.45;108026;1289;22019;-64
2024/01/07 10:14:09;;;;;;;14.10;8.90;;;;;;;12.74;99.21;99528.58;107939;1289;22003;-62
2024/01/07 10:16:35;;;;;;;18.20;8.80;;;;;;;12.74;99.25;99515.17;107954;1289;21996;-61
2024/01/07 10:19:01;;;;;;;15.30;8.00;;;;;;;12.75;99.31;99511.13;107866;1289;22003;-61
2024/01/07 10:21:26;;;;;;;13.80;8.50;;;;;;;12.75;99.35;99510.58;107889;1289;22003;-62
2024/01/07 10:24:09;;;;;;;14.60;9.10;;;;;;;12.76;99.31;99504.55;107921;1289;21997;-64
2024/01/07 10:26:35;;;;;;;14.00;8.60;;;;;;;12.77;99.36;99496.25;107909;1289;23053;-67
2024/01/07 10:29:00;;;;;;;17.00;9.30;;;;;;;12.77;99.34;99489.55;107871;1289;22024;-62
2024/01/07 10:31:26;;;;;;;16.60;9.30;;;;;;;12.78;99.13;99481.77;107912;1289;21994;-62
2024/01/07 10:33:52;;;;;;;15.10;9.60;;;;;;;12.79;99.21;99478.41;107861;1279;22000;-65
2024/01/07 10:36:18;;;;;;;17.20;10.10;;;;;;;12.80;99.41;99476.25;107764;1289;21995;-62
2024/01/07 10:38:44;;;;;;;20.80;10.50;;;;;;;12.82;99.38;99479.38;107776;1284;21995;-62
2024/01/07 10:41:11;;;;;;;19.30;10.00;;;;;;;12.82;99.36;99477.59;107944;1289;21995;-66
2024/01/07 10:43:37;;;;;;;20.70;10.00;;;;;;;12.82;99.34;99479.34;107944;1289;22002;-61
2024/01/07 10:46:03;;;;;;;24.20;13.00;;;;;;;12.83;99.42;99475.06;107904;1280;22009;-65
2024/01/07 10:48:31;;;;;;;24.20;13.00;;;;;;;12.84;99.37;99480.14;107816;1289;22777;-65
2024/01/07 10:50:59;;;;;;;18.70;11.00;;;;;;;12.82;99.47;99492.56;107899;1289;21995;-63
2024/01/07 10:53:24;;;;;;;20.80;11.60;;;;;;;12.82;99.75;99487.48;107908;1289;22036;-66
2024/01/07 10:56:03;;;;;;;22.30;11.60;;;;;;;12.82;99.86;99481.11;107827;1289;22009;-62
2024/01/07 10:58:33;;;;;;;22.90;10.60;;;;;;;12.85;99.63;99476.77;107958;1289;21995;-62
2024/01/07 11:01:02;;;;;;;24.40;11.00;;;;;;;12.88;99.51;99474.92;107867;1289;21953;-65
2024/01/07 11:03:41;;;;;;;25.70;11.00;;;;;;;12.89;99.34;99471.17;107887;1281;22005;-62
2024/01/07 11:06:16;;;;;;;22.40;11.20;;;;;;;12.90;99.37;99463.21;107705;1289;22013;-67
2024/01/07 11:08:59;;;;;;;25.60;10.80;;;;;;;12.91;99.32;99461.77;107895;1290;22001;-62
2024/01/07 11:11:35;;;;;;;22.30;10.20;;;;;;;12.92;99.54;99461.91;107898;1290;22001;-65